createdAt,value
2022-08-11T00:01:16.404Z,19.35
2022-08-11T00:03:47.333Z,19.28
2022-08-11T00:06:24.230Z,19.27
2022-08-11T00:08:54.416Z,19.13
2022-08-11T00:11:24.081Z,19.12
2022-08-11T00:13:55.306Z,19.12
2022-08-11T00:16:25.863Z,19.10
2022-08-11T00:18:55.384Z,19.09
2022-08-11T00:22:01.989Z,19.11
2022-08-11T00:24:14.326Z,19.14
2022-08-11T00:26:48.129Z,19.12
2022-08-11T00:29:16.408Z,19.16
2022-08-11T00:31:47.002Z,19.17
2022-08-11T00:34:18.613Z,19.19
2022-08-11T00:36:51.376Z,19.17
2022-08-11T00:39:28.662Z,19.11
2022-08-11T00:42:11.901Z,19.12
2022-08-11T00:44:51.031Z,19.07
2022-08-11T00:47:28.092Z,19.16
2022-08-11T00:50:08.862Z,19.11
2022-08-11T00:53:00.684Z,19.08
2022-08-11T00:56:11.309Z,19.05
2022-08-11T00:59:35.213Z,19.01
2022-08-11T01:02:18.449Z,19.00
2022-08-11T01:05:15.882Z,19.01
2022-08-11T01:08:15.701Z,18.95
2022-08-11T01:11:10.280Z,18.95
2022-08-11T01:14:06.676Z,18.96
2022-08-11T01:16:59.537Z,18.93
2022-08-11T01:20:45.020Z,18.89
2022-08-11T01:23:19.965Z,18.86
2022-08-11T01:26:23.364Z,18.82
2022-08-11T01:29:26.041Z,18.79
2022-08-11T01:32:35.191Z,18.74
2022-08-11T01:35:35.892Z,18.59
2022-08-11T01:38:56.728Z,18.53
2022-08-11T01:42:18.398Z,18.48
2022-08-11T01:45:07.907Z,18.41
2022-08-11T01:47:54.442Z,18.36
2022-08-11T01:50:38.171Z,18.31
2022-08-11T01:53:16.784Z,18.20
2022-08-11T01:55:55.134Z,18.15
2022-08-11T01:58:44.274Z,18.14
2022-08-11T02:01:29.596Z,18.06
2022-08-11T02:04:07.447Z,17.99
2022-08-11T02:06:56.230Z,17.89
2022-08-11T02:10:35.114Z,17.89
2022-08-11T02:13:10.710Z,17.82
2022-08-11T02:15:46.947Z,17.74
2022-08-11T02:18:22.879Z,17.68
2022-08-11T02:21:14.741Z,17.58
2022-08-11T02:24:04.146Z,17.55
2022-08-11T02:26:41.831Z,17.50
2022-08-11T02:29:19.870Z,17.38
2022-08-11T02:32:29.569Z,17.34
2022-08-11T02:35:11.065Z,17.27
2022-08-11T02:37:47.954Z,17.23
2022-08-11T02:40:36.511Z,17.17
2022-08-11T02:43:12.079Z,17.11
2022-08-11T02:45:49.247Z,17.09
2022-08-11T02:48:55.929Z,17.03
2022-08-11T02:51:40.103Z,17.01
2022-08-11T02:54:16.098Z,16.94
2022-08-11T02:56:55.939Z,16.89
2022-08-11T02:59:53.415Z,16.85
2022-08-11T03:02:33.097Z,16.78
2022-08-11T03:05:09.150Z,16.72
2022-08-11T03:07:52.453Z,16.68
2022-08-11T03:10:24.909Z,16.55
2022-08-11T03:13:17.323Z,16.58
2022-08-11T03:16:10.854Z,16.54
2022-08-11T03:18:45.766Z,16.58
2022-08-11T03:21:22.013Z,16.54
2022-08-11T03:23:56.915Z,16.44
2022-08-11T03:26:31.670Z,16.42
2022-08-11T03:29:07.774Z,16.38
2022-08-11T03:31:42.635Z,16.32
2022-08-11T03:34:18.381Z,16.32
2022-08-11T03:37:16.171Z,16.26
2022-08-11T03:39:59.178Z,16.32
2022-08-11T03:42:40.705Z,16.21
2022-08-11T03:45:22.915Z,16.20
2022-08-11T03:48:07.114Z,16.16
2022-08-11T03:50:55.418Z,16.16
2022-08-11T03:53:49.074Z,16.18
2022-08-11T03:56:44.147Z,16.10
2022-08-11T03:59:35.046Z,16.09
2022-08-11T04:02:25.780Z,16.07
2022-08-11T04:05:28.187Z,16.02
2022-08-11T04:08:34.373Z,16.01
2022-08-11T04:11:37.920Z,15.94
2022-08-11T04:15:01.769Z,15.91
2022-08-11T04:17:57.659Z,15.84
2022-08-11T04:20:58.316Z,15.79
2022-08-11T04:24:35.794Z,15.75
2022-08-11T04:26:53.198Z,15.77
2022-08-11T04:30:03.518Z,15.75
2022-08-11T04:32:43.036Z,15.72
2022-08-11T04:35:25.541Z,15.69
2022-08-11T04:38:16.300Z,15.62
2022-08-11T04:41:20.103Z,15.62
2022-08-11T04:44:47.337Z,15.63
2022-08-11T04:48:01.668Z,15.58
2022-08-11T04:51:08.782Z,15.63
2022-08-11T04:54:13.540Z,15.67
2022-08-11T04:57:02.430Z,15.65
2022-08-11T05:00:20.060Z,15.72
2022-08-11T05:03:24.540Z,15.74
2022-08-11T05:06:43.994Z,15.74
2022-08-11T05:09:35.928Z,15.77
2022-08-11T05:12:16.623Z,15.82
2022-08-11T05:15:08.221Z,15.86
2022-08-11T05:17:58.058Z,15.91
2022-08-11T05:20:45.305Z,15.95
2022-08-11T05:23:31.599Z,16.03
2022-08-11T05:26:47.981Z,16.08
2022-08-11T05:29:57.811Z,16.14
2022-08-11T05:32:48.652Z,16.20
2022-08-11T05:36:01.704Z,16.27
2022-08-11T05:38:36.983Z,16.35
2022-08-11T05:41:25.536Z,16.43
2022-08-11T05:44:19.869Z,16.55
2022-08-11T05:47:08.707Z,16.68
2022-08-11T05:49:55.275Z,16.75
2022-08-11T05:52:46.872Z,16.86
2022-08-11T05:55:34.997Z,16.96
2022-08-11T05:58:06.858Z,17.08
2022-08-11T06:00:43.340Z,17.19
2022-08-11T06:03:12.172Z,17.30
2022-08-11T06:05:43.481Z,17.43
2022-08-11T06:08:13.797Z,17.72
2022-08-11T06:10:44.257Z,17.89
2022-08-11T06:13:18.544Z,18.09
2022-08-11T06:15:48.486Z,18.18
2022-08-11T06:18:17.636Z,18.34
2022-08-11T06:20:48.759Z,18.45
2022-08-11T06:23:20.535Z,18.61
2022-08-11T06:25:49.596Z,18.66
2022-08-11T06:28:22.587Z,18.81
2022-08-11T06:30:51.460Z,18.91
2022-08-11T06:33:30.692Z,19.04
2022-08-11T06:36:04.845Z,19.12
2022-08-11T06:38:48.325Z,19.21
2022-08-11T06:41:34.405Z,19.31
2022-08-11T06:44:16.354Z,19.43
2022-08-11T06:46:48.567Z,19.56
2022-08-11T06:49:36.980Z,19.71
2022-08-11T06:52:07.635Z,19.76
2022-08-11T06:55:05.514Z,19.88
2022-08-11T06:57:54.148Z,19.99
2022-08-11T07:00:33.172Z,20.08
2022-08-11T07:03:08.748Z,20.17
2022-08-11T07:05:45.858Z,20.27
2022-08-11T07:08:59.517Z,20.35
2022-08-11T07:12:32.764Z,20.49
2022-08-11T07:15:22.196Z,20.56
2022-08-11T07:18:16.098Z,20.66
2022-08-11T07:21:02.962Z,20.75
2022-08-11T07:24:04.192Z,20.80
2022-08-11T07:26:51.848Z,20.90
2022-08-11T07:29:21.343Z,21.02
2022-08-11T07:31:53.947Z,21.08
2022-08-11T07:34:29.159Z,21.17
2022-08-11T07:36:58.774Z,21.23
2022-08-11T07:39:28.236Z,21.35
2022-08-11T07:41:59.452Z,21.37
2022-08-11T07:44:34.813Z,21.46
2022-08-11T07:47:47.686Z,21.58
2022-08-11T07:50:35.196Z,21.68
2022-08-11T07:53:05.181Z,21.71
2022-08-11T07:55:50.293Z,21.78
2022-08-11T07:58:44.937Z,21.93
2022-08-11T08:01:37.171Z,21.93
2022-08-11T08:04:24.609Z,22.02
2022-08-11T08:07:12.129Z,22.05
2022-08-11T08:09:58.390Z,22.23
2022-08-11T08:12:45.265Z,22.25
2022-08-11T08:15:32.597Z,22.28
2022-08-11T08:18:20.729Z,22.34
2022-08-11T08:20:51.437Z,22.42
2022-08-11T08:23:33.250Z,22.49
2022-08-11T08:26:03.475Z,22.52
2022-08-11T08:28:32.768Z,22.52
2022-08-11T08:31:00.467Z,22.54
2022-08-11T08:33:31.640Z,22.56
2022-08-11T08:36:12.674Z,22.67
2022-08-11T08:38:47.563Z,22.68
2022-08-11T08:41:20.684Z,22.76
2022-08-11T08:43:52.845Z,22.79
2022-08-11T08:46:27.422Z,22.86
2022-08-11T08:48:56.532Z,22.94
2022-08-11T08:51:58.536Z,22.93
2022-08-11T08:54:35.524Z,23.09
2022-08-11T08:57:05.139Z,23.12
2022-08-11T08:59:47.541Z,23.05
2022-08-11T09:02:34.328Z,23.18
2022-08-11T09:05:05.203Z,23.26
2022-08-11T09:07:39.152Z,23.24
2022-08-11T09:10:11.880Z,23.42
2022-08-11T09:12:42.280Z,23.37
2022-08-11T09:15:12.455Z,23.41
2022-08-11T09:17:43.183Z,23.55
2022-08-11T09:20:23.891Z,23.46
2022-08-11T09:24:08.843Z,23.55
2022-08-11T09:26:20.993Z,23.67
2022-08-11T09:28:50.150Z,23.73
2022-08-11T09:31:18.407Z,23.68
2022-08-11T09:33:53.133Z,23.74
2022-08-11T09:36:39.839Z,23.79
2022-08-11T09:39:31.246Z,23.88
2022-08-11T09:42:03.487Z,23.78
2022-08-11T09:44:48.942Z,23.90
2022-08-11T09:47:24.480Z,23.92
2022-08-11T09:49:54.712Z,24.11
2022-08-11T09:52:25.853Z,24.07
2022-08-11T09:54:54.514Z,24.05
2022-08-11T09:57:40.955Z,24.10
2022-08-11T10:00:13.572Z,24.14
2022-08-11T10:02:45.076Z,24.02
2022-08-11T10:05:33.287Z,24.01
2022-08-11T10:08:03.861Z,24.05
2022-08-11T10:10:36.907Z,24.04
2022-08-11T10:14:03.670Z,24.12
2022-08-11T10:16:00.107Z,24.23
2022-08-11T10:18:49.522Z,24.31
2022-08-11T10:21:28.174Z,24.33
2022-08-11T10:24:17.497Z,24.27
2022-08-11T10:26:54.415Z,24.34
2022-08-11T10:29:44.453Z,24.34
2022-08-11T10:32:52.167Z,24.32
2022-08-11T10:35:27.137Z,24.53
2022-08-11T10:38:07.414Z,24.60
2022-08-11T10:40:40.048Z,24.64
2022-08-11T10:43:13.553Z,24.61
2022-08-11T10:46:03.071Z,24.57
2022-08-11T10:48:33.005Z,24.64
2022-08-11T10:51:25.633Z,24.71
2022-08-11T10:54:24.351Z,24.72
2022-08-11T10:57:13.117Z,24.79
2022-08-11T10:59:42.765Z,24.76
2022-08-11T11:02:15.076Z,24.87
2022-08-11T11:04:58.988Z,24.79
2022-08-11T11:07:41.423Z,24.87
2022-08-11T11:10:12.578Z,24.98
2022-08-11T11:13:03.145Z,24.96
2022-08-11T11:15:50.217Z,24.98
2022-08-11T11:18:22.268Z,25.05
2022-08-11T11:20:55.618Z,25.04
2022-08-11T11:23:28.024Z,25.16
2022-08-11T11:26:27.456Z,25.07
2022-08-11T11:29:28.863Z,25.14
2022-08-11T11:32:17.942Z,25.26
2022-08-11T11:35:31.484Z,25.29
2022-08-11T11:38:04.398Z,25.27
2022-08-11T11:40:34.636Z,25.23
2022-08-11T11:43:03.734Z,25.23
2022-08-11T11:45:33.318Z,25.24
2022-08-11T11:48:02.074Z,25.31
2022-08-11T11:50:33.078Z,25.25
2022-08-11T11:53:04.727Z,25.34
2022-08-11T11:55:33.241Z,25.45
2022-08-11T11:58:21.085Z,25.42
2022-08-11T12:01:10.886Z,25.33
2022-08-11T12:03:40.772Z,25.36
2022-08-11T12:06:12.112Z,25.27
2022-08-11T12:08:40.195Z,25.38
2022-08-11T12:11:28.415Z,25.41
2022-08-11T12:13:59.712Z,25.36
2022-08-11T12:16:34.484Z,25.41
2022-08-11T12:19:06.389Z,25.49
2022-08-11T12:21:36.539Z,25.36
2022-08-11T12:24:23.266Z,25.50
2022-08-11T12:27:17.867Z,25.57
2022-08-11T12:29:54.517Z,25.53
2022-08-11T12:32:27.358Z,25.58
2022-08-11T12:34:57.803Z,25.50
2022-08-11T12:37:31.237Z,25.54
2022-08-11T12:40:43.227Z,25.66
2022-08-11T12:43:38.029Z,25.57
2022-08-11T12:46:12.004Z,25.48
2022-08-11T12:49:04.676Z,25.57
2022-08-11T12:52:13.965Z,25.65
2022-08-11T12:54:51.756Z,25.72
2022-08-11T12:57:44.404Z,25.66
2022-08-11T13:00:31.294Z,25.64
2022-08-11T13:03:17.928Z,25.80
2022-08-11T13:05:49.546Z,25.89
2022-08-11T13:08:18.700Z,25.79
2022-08-11T13:11:20.042Z,25.70
2022-08-11T13:13:55.408Z,25.93
2022-08-11T13:16:27.662Z,26.06
2022-08-11T13:18:57.348Z,25.98
2022-08-11T13:21:28.070Z,26.07
2022-08-11T13:24:00.872Z,26.01
2022-08-11T13:26:48.561Z,25.82
2022-08-11T13:29:26.282Z,25.97
2022-08-11T13:31:56.125Z,25.96
2022-08-11T13:34:26.812Z,26.13
2022-08-11T13:36:59.308Z,26.05
2022-08-11T13:39:29.479Z,26.07
2022-08-11T13:41:59.491Z,25.91
2022-08-11T13:44:29.898Z,26.07
2022-08-11T13:47:01.363Z,26.07
2022-08-11T13:49:31.339Z,26.21
2022-08-11T13:52:01.289Z,26.15
2022-08-11T13:54:33.181Z,26.18
2022-08-11T13:57:08.163Z,26.18
2022-08-11T13:59:52.303Z,26.17
2022-08-11T14:02:29.042Z,26.24
2022-08-11T14:05:00.236Z,26.21
2022-08-11T14:07:35.817Z,26.24
2022-08-11T14:10:05.517Z,26.27
2022-08-11T14:12:53.319Z,26.34
2022-08-11T14:15:25.254Z,26.34
2022-08-11T14:17:57.261Z,26.28
2022-08-11T14:20:45.897Z,26.26
2022-08-11T14:23:15.758Z,26.25
2022-08-11T14:26:04.752Z,26.23
2022-08-11T14:28:40.298Z,26.32
2022-08-11T14:31:10.291Z,26.42
2022-08-11T14:34:00.409Z,26.45
2022-08-11T14:36:29.724Z,26.51
2022-08-11T14:38:59.774Z,26.44
2022-08-11T14:42:11.893Z,26.43
2022-08-11T14:44:54.198Z,26.37
2022-08-11T14:47:25.441Z,26.36
2022-08-11T14:50:09.416Z,26.39
2022-08-11T14:52:44.627Z,26.34
2022-08-11T14:55:32.306Z,26.43
2022-08-11T14:58:01.980Z,26.38
2022-08-11T15:00:30.938Z,26.50
2022-08-11T15:03:12.272Z,26.55
2022-08-11T15:05:56.377Z,26.56
2022-08-11T15:08:42.715Z,26.54
2022-08-11T15:11:27.823Z,26.60
2022-08-11T15:13:57.197Z,26.54
2022-08-11T15:16:43.557Z,26.45
2022-08-11T15:19:13.103Z,26.55
2022-08-11T15:21:59.004Z,26.62
2022-08-11T15:24:28.001Z,26.55
2022-08-11T15:27:21.816Z,26.62
2022-08-11T15:30:09.795Z,26.64
2022-08-11T15:33:04.949Z,26.64
2022-08-11T15:35:53.583Z,26.72
2022-08-11T15:38:23.243Z,26.70
2022-08-11T15:41:13.831Z,26.69
2022-08-11T15:44:04.151Z,26.68
2022-08-11T15:46:34.999Z,26.66
2022-08-11T15:49:09.696Z,26.63
2022-08-11T15:51:41.030Z,26.60
2022-08-11T15:54:12.675Z,26.60
2022-08-11T15:56:45.136Z,26.58
2022-08-11T15:59:43.150Z,26.58
2022-08-11T16:02:32.531Z,26.59
2022-08-11T16:05:04.153Z,26.61
2022-08-11T16:07:38.476Z,26.62
2022-08-11T16:10:15.609Z,26.56
2022-08-11T16:13:20.275Z,26.57
2022-08-11T16:16:09.851Z,26.54
2022-08-11T16:18:47.113Z,26.51
2022-08-11T16:21:34.371Z,26.53
2022-08-11T16:24:08.668Z,26.52
2022-08-11T16:27:08.156Z,26.48
2022-08-11T16:29:43.903Z,26.48
2022-08-11T16:32:19.155Z,26.51
2022-08-11T16:35:07.272Z,26.46
2022-08-11T16:37:54.144Z,26.44
2022-08-11T16:40:23.964Z,26.42
2022-08-11T16:43:11.767Z,26.42
2022-08-11T16:45:59.005Z,26.39
2022-08-11T16:48:36.001Z,26.36
2022-08-11T16:51:06.740Z,26.34
2022-08-11T16:54:00.247Z,26.35
2022-08-11T16:56:26.246Z,26.30
2022-08-11T16:59:14.688Z,26.27
2022-08-11T17:01:46.008Z,26.25
2022-08-11T17:04:39.182Z,26.26
2022-08-11T17:07:40.264Z,26.23
2022-08-11T17:10:51.008Z,26.15
2022-08-11T17:13:27.115Z,26.11
2022-08-11T17:16:12.597Z,26.07
2022-08-11T17:18:51.420Z,26.05
2022-08-11T17:21:26.238Z,26.02
2022-08-11T17:23:57.101Z,26.00
2022-08-11T17:26:51.501Z,25.95
2022-08-11T17:29:22.938Z,25.89
2022-08-11T17:32:09.118Z,25.87
2022-08-11T17:34:56.399Z,25.78
2022-08-11T17:37:26.062Z,25.77
2022-08-11T17:39:56.230Z,25.71
2022-08-11T17:42:47.278Z,25.68
2022-08-11T17:45:34.178Z,25.64
2022-08-11T17:48:19.904Z,25.61
2022-08-11T17:50:49.356Z,25.55
2022-08-11T17:53:36.815Z,25.53
2022-08-11T17:56:28.902Z,25.50
2022-08-11T17:59:16.518Z,25.44
2022-08-11T18:01:45.534Z,25.40
2022-08-11T18:04:19.444Z,25.34
2022-08-11T18:06:48.617Z,25.30
2022-08-11T18:09:38.578Z,25.26
2022-08-11T18:12:26.384Z,25.20
2022-08-11T18:15:13.641Z,25.13
2022-08-11T18:17:59.770Z,25.07
2022-08-11T18:20:45.898Z,25.01
2022-08-11T18:23:41.708Z,24.95
2022-08-11T18:26:37.518Z,24.91
2022-08-11T18:29:25.729Z,24.84
2022-08-11T18:32:21.949Z,24.76
2022-08-11T18:35:11.019Z,24.67
2022-08-11T18:38:03.743Z,24.63
2022-08-11T18:40:50.506Z,24.56
2022-08-11T18:43:39.736Z,24.44
2022-08-11T18:46:27.588Z,24.39
2022-08-11T18:49:19.431Z,24.30
2022-08-11T18:52:07.125Z,24.22
2022-08-11T18:54:55.275Z,24.14
2022-08-11T18:57:50.056Z,24.05
2022-08-11T19:00:44.803Z,23.97
2022-08-11T19:03:43.394Z,23.90
2022-08-11T19:06:39.724Z,23.84
2022-08-11T19:09:28.646Z,23.72
2022-08-11T19:12:16.849Z,23.66
2022-08-11T19:15:04.042Z,23.57
2022-08-11T19:17:54.023Z,23.45
2022-08-11T19:20:41.745Z,23.34
2022-08-11T19:23:29.631Z,23.23
2022-08-11T19:26:16.394Z,23.13
2022-08-11T19:29:06.650Z,23.07
2022-08-11T19:31:52.788Z,23.01
2022-08-11T19:34:42.086Z,22.93
2022-08-11T19:37:29.942Z,22.85
2022-08-11T19:40:19.998Z,22.80
2022-08-11T19:43:14.930Z,22.75
2022-08-11T19:46:15.104Z,22.66
2022-08-11T19:49:02.390Z,22.50
2022-08-11T19:51:53.457Z,22.45
2022-08-11T19:54:42.856Z,22.36
2022-08-11T19:57:29.109Z,22.30
2022-08-11T20:03:00.725Z,22.12
2022-08-11T20:05:55.299Z,22.13
2022-08-11T20:08:48.520Z,22.00
2022-08-11T20:11:36.154Z,21.93
2022-08-11T20:14:23.419Z,21.92
2022-08-11T20:17:10.656Z,21.82
2022-08-11T20:19:57.487Z,21.64
2022-08-11T20:22:45.228Z,21.62
2022-08-11T20:25:33.401Z,21.55
2022-08-11T20:28:20.972Z,21.43
2022-08-11T20:31:07.288Z,21.36
2022-08-11T20:33:53.095Z,21.32
2022-08-11T20:36:38.864Z,21.30
2022-08-11T20:39:25.680Z,21.22
2022-08-11T20:42:14.287Z,21.23
2022-08-11T20:45:01.150Z,21.14
2022-08-11T20:47:56.155Z,21.11
2022-08-11T20:50:46.003Z,21.11
2022-08-11T20:53:36.070Z,21.00
2022-08-11T20:56:28.877Z,20.99
2022-08-11T20:59:21.587Z,20.98
2022-08-11T21:02:10.554Z,20.92
2022-08-11T21:05:00.326Z,20.89
2022-08-11T21:07:57.088Z,20.81
2022-08-11T21:10:46.913Z,20.78
2022-08-11T21:13:34.382Z,20.79
2022-08-11T21:16:27.211Z,20.70
2022-08-11T21:20:00.681Z,20.61
2022-08-11T21:22:28.074Z,20.53
2022-08-11T21:25:15.973Z,20.50
2022-08-11T21:28:03.539Z,20.45
2022-08-11T21:30:51.701Z,20.45
2022-08-11T21:33:41.258Z,20.43
2022-08-11T21:36:28.625Z,20.39
2022-08-11T21:39:14.373Z,20.36
2022-08-11T21:42:00.202Z,20.32
2022-08-11T21:44:46.353Z,20.23
2022-08-11T21:47:42.786Z,20.29
2022-08-11T21:50:30.806Z,20.26
2022-08-11T21:53:17.099Z,20.11
2022-08-11T21:56:03.337Z,20.12
2022-08-11T21:58:48.996Z,20.00
2022-08-11T22:01:34.871Z,20.00
2022-08-11T22:04:21.672Z,20.02
2022-08-11T22:07:09.224Z,19.93
2022-08-11T22:09:55.184Z,19.93
2022-08-11T22:12:44.749Z,19.90
2022-08-11T22:15:31.470Z,19.87
2022-08-11T22:18:16.658Z,19.89
2022-08-11T22:21:03.488Z,19.87
2022-08-11T22:23:53.164Z,19.87
2022-08-11T22:26:41.198Z,19.84
2022-08-11T22:29:49.975Z,19.87
2022-08-11T22:32:33.860Z,19.90
2022-08-11T22:35:21.785Z,19.88
2022-08-11T22:38:07.840Z,19.89
2022-08-11T22:40:55.331Z,19.91
2022-08-11T22:43:40.573Z,19.89
2022-08-11T22:46:26.746Z,19.88
2022-08-11T22:49:13.987Z,19.88
2022-08-11T22:52:01.225Z,19.87
2022-08-11T22:54:47.923Z,19.84
2022-08-11T22:57:34.793Z,19.85
2022-08-11T23:00:20.583Z,19.79
2022-08-11T23:03:07.244Z,19.78
2022-08-11T23:05:57.150Z,19.76
2022-08-11T23:08:42.815Z,19.74
2022-08-11T23:11:55.309Z,19.78
2022-08-11T23:14:36.053Z,19.74
2022-08-11T23:17:21.295Z,19.62
2022-08-11T23:20:28.835Z,19.56
2022-08-11T23:23:13.834Z,19.49
2022-08-11T23:26:00.709Z,19.39
2022-08-11T23:28:47.865Z,19.27
2022-08-11T23:31:43.621Z,19.24
2022-08-11T23:35:02.937Z,19.15
2022-08-11T23:37:44.776Z,19.06
2022-08-11T23:40:29.964Z,18.96
2022-08-11T23:43:16.629Z,18.88
2022-08-11T23:46:01.762Z,18.88
2022-08-11T23:48:49.426Z,18.83
2022-08-11T23:51:37.861Z,18.74
2022-08-11T23:54:27.197Z,18.71
2022-08-11T23:57:13.428Z,18.63
2022-08-11T23:59:58.693Z,18.59
